Time;durP1;ratioP1;P1;durP2;ratioP2;P2;SDS_P1;SDS_P2;PMS_P1;PMS_P2;Temp;Humidity;BMP_temperature;BMP_pressure;BME280_temperature;BME280_humidity;BME280_pressure;Samples;Min_cycle;Max_cycle;Signal;HPM_P1;HPM_P2
2023/01/14 00:01:00;;;;;;;;;;;;;;;;;;4998302;28;7215;-68
2023/01/14 00:03:27;;;;;;;;;;;;;;;;;;4998366;28;7442;-68
2023/01/14 00:05:55;;;;;;;;;;;;;;;;;;4998170;28;7105;-68
2023/01/14 00:08:21;;;;;;;;;;;;;;;;;;4998207;28;7033;-68
2023/01/14 00:10:46;;;;;;;;;;;;;;;;;;4997600;28;7196;-68
2023/01/14 00:13:18;;;;;;;;;;;;;;;;;;4997460;28;6923;-68
2023/01/14 00:15:52;;;;;;;;;;;;;;;;;;4998016;28;7593;-68
2023/01/14 00:18:19;;;;;;;;;;;;;;;;;;4998086;28;7029;-68
2023/01/14 00:20:54;;;;;;;;;;;;;;;;;;4997916;28;6953;-68
2023/01/14 00:23:19;;;;;;;;;;;;;;;;;;4998380;28;7368;-68
2023/01/14 00:25:45;;;;;;;;;;;;;;;;;;4997746;28;7395;-68
2023/01/14 00:28:27;;;;;;;;;;;;;;;;;;4997724;28;7246;-68
2023/01/14 00:30:52;;;;;;;;;;;;;;;;;;4980158;28;8703;-68
2023/01/14 00:33:18;;;;;;;;;;;;;;;;;;4997545;28;7144;-68
2023/01/14 00:35:51;;;;;;;;;;;;;;;;;;4997640;28;7351;-68
2023/01/14 00:41:22;;;;;;;;;;;;;;;;;;4997282;28;6951;-68
2023/01/14 00:43:49;;;;;;;;;;;;;;;;;;4997643;28;7131;-68
2023/01/14 00:46:28;;;;;;;;;;;;;;;;;;4996239;28;7358;-68
2023/01/14 00:48:54;;;;;;;;;;;;;;;;;;4997848;28;7086;-68
2023/01/14 00:51:21;;;;;;;;;;;;;;;;;;4997305;28;7282;-68
2023/01/14 00:56:49;;;;;;;;;;;;;;;;;;4997332;28;6695;-68
2023/01/14 01:02:17;;;;;;;;;;;;;;;;;;4996857;28;6804;-68
2023/01/14 01:10:51;;;;;;;;;;;;;;;;;;4996888;28;6674;-68
2023/01/14 01:13:18;;;;;;;;;;;;;;;;;;4996700;28;7354;-68
2023/01/14 01:15:43;;;;;;;;;;;;;;;;;;4996787;28;6920;-68
2023/01/14 01:18:10;;;;;;;;;;;;;;;;;;4996706;28;7149;-68
2023/01/14 01:21:00;;;;;;;;;;;;;;;;;;4996829;28;7192;-68
2023/01/14 01:23:25;;;;;;;;;;;;;;;;;;4996625;28;6935;-68
2023/01/14 01:25:58;;;;;;;;;;;;;;;;;;4996702;28;7563;-68
2023/01/14 01:28:23;;;;;;;;;;;;;;;;;;4996189;28;7379;-68
2023/01/14 01:30:49;;;;;;;;;;;;;;;;;;4996591;28;7141;-68
2023/01/14 01:33:14;;;;;;;;;;;;;;;;;;4996349;28;7089;-68
2023/01/14 01:35:40;;;;;;;;;;;;;;;;;;4997725;28;7157;-68
2023/01/14 01:38:32;;;;;;;;;;;;;;;;;;4996409;28;7196;-68
2023/01/14 01:40:58;;;;;;;;;;;;;;;;;;4996784;28;7119;-68
2023/01/14 01:43:29;;;;;;;;;;;;;;;;;;4996264;28;7039;-68
2023/01/14 01:45:59;;;;;;;;;;;;;;;;;;4996060;28;7180;-68
2023/01/14 01:54:19;;;;;;;;;;;;;;;;;;4977550;28;6985;-65
2023/01/14 01:56:59;;;;;;;;;;;;;;;;;;4976833;28;7167;-64
2023/01/14 01:59:29;;;;;;;;;;;;;;;;;;4976140;28;7167;-66
2023/01/14 02:01:56;;;;;;;;;;;;;;;;;;4976524;28;7178;-65
2023/01/14 02:04:21;;;;;;;;;;;;;;;;;;4976578;28;7065;-65
2023/01/14 02:19:23;;;;;;;;;;;;;;;;;;4996102;28;6786;-65
2023/01/14 02:22:04;;;;;;;;;;;;;;;;;;4978305;28;7177;-65
2023/01/14 02:24:48;;;;;;;;;;;;;;;;;;4995688;28;7066;-65
2023/01/14 02:27:34;;;;;;;;;;;;;;;;;;4996436;28;7237;-65
2023/01/14 02:30:05;;;;;;;;;;;;;;;;;;4995583;28;7153;-65
2023/01/14 02:32:31;;;;;;;;;;;;;;;;;;4995537;28;7255;-65
2023/01/14 02:34:59;;;;;;;;;;;;;;;;;;5048527;23;7555;-66
2023/01/14 02:37:28;;;;;;;;;;;;;;;;;;4995287;28;7235;-68
2023/01/14 02:40:20;;;;;;;;;;;;;;;;;;4995469;28;7181;-68
2023/01/14 02:45:45;;;;;;;;;;;;;;;;;;5015446;28;6817;-68
2023/01/14 02:48:38;;;;;;;;;;;;;;;;;;5014756;28;6945;-68
2023/01/14 02:51:05;;;;;;;;;;;;;;;;;;5014988;28;6931;-68
2023/01/14 02:53:30;;;;;;;;;;;;;;;;;;5015102;28;7120;-68
2023/01/14 02:55:57;;;;;;;;;;;;;;;;;;5015150;28;7135;-68
2023/01/14 02:58:26;;;;;;;;;;;;;;;;;;5014870;28;6951;-68
2023/01/14 03:01:11;;;;;;;;;;;;;;;;;;5014982;28;7045;-68
2023/01/14 03:03:36;;;;;;;;;;;;;;;;;;5014765;28;7331;-68
2023/01/14 03:09:38;;;;;;;;;;;;;;;;;;5014728;28;6699;-68
2023/01/14 03:15:30;;;;;;;;;;;;;;;;;;5018558;28;6692;-68
2023/01/14 03:21:01;;;;;;;;;;;;;;;;;;5018550;28;6704;-68
2023/01/14 03:23:31;;;;;;;;;;;;;;;;;;5018642;28;6957;-68
2023/01/14 03:25:59;;;;;;;;;;;;;;;;;;5018580;28;7421;-68
2023/01/14 03:28:30;;;;;;;;;;;;;;;;;;5018416;28;7256;-68
2023/01/14 03:31:11;;;;;;;;;;;;;;;;;;5018605;28;6994;-68
2023/01/14 03:36:42;;;;;;;;;;;;;;;;;;5036893;28;7021;-68
2023/01/14 03:39:29;;;;;;;;;;;;;;;;;;5038105;28;7395;-68
2023/01/14 03:42:18;;;;;;;;;;;;;;;;;;5037936;28;7202;-68
2023/01/14 03:44:43;;;;;;;;;;;;;;;;;;5038088;28;7396;-68
2023/01/14 03:47:21;;;;;;;;;;;;;;;;;;5037888;28;7362;-68
2023/01/14 03:49:48;;;;;;;;;;;;;;;;;;5037998;28;7178;-68
2023/01/14 03:52:14;;;;;;;;;;;;;;;;;;5037824;28;7128;-68
2023/01/14 03:57:51;;;;;;;;;;;;;;;;;;5037686;28;6683;-68
2023/01/14 04:03:09;;;;;;;;;;;;;;;;;;5038102;28;7015;-68
2023/01/14 04:17:27;;;;;;;;;;;;;;;;;;5037811;28;6956;-68
2023/01/14 04:22:56;;;;;;;;;;;;;;;;;;5036819;28;6730;-68
2023/01/14 04:25:27;;;;;;;;;;;;;;;;;;5037258;28;6907;-68
2023/01/14 04:27:52;;;;;;;;;;;;;;;;;;5037143;28;7131;-68
2023/01/14 04:30:17;;;;;;;;;;;;;;;;;;5037135;28;7237;-68
2023/01/14 04:32:43;;;;;;;;;;;;;;;;;;5037029;28;7395;-68
2023/01/14 04:38:11;;;;;;;;;;;;;;;;;;5017056;28;7013;-68
2023/01/14 04:40:37;;;;;;;;;;;;;;;;;;5017230;28;7008;-68
2023/01/14 04:43:15;;;;;;;;;;;;;;;;;;5017073;28;7304;-68
2023/01/14 04:45:50;;;;;;;;;;;;;;;;;;5016877;28;7008;-68
2023/01/14 04:51:18;;;;;;;;;;;;;;;;;;5016736;28;6989;-68
2023/01/14 04:56:47;;;;;;;;;;;;;;;;;;5016820;28;6692;-69
2023/01/14 04:59:25;;;;;;;;;;;;;;;;;;5016419;28;6980;-68
2023/01/14 05:02:14;;;;;;;;;;;;;;;;;;5016715;28;7149;-68
2023/01/14 05:04:45;;;;;;;;;;;;;;;;;;5016651;28;7198;-68
2023/01/14 05:07:36;;;;;;;;;;;;;;;;;;5016662;28;7224;-68
2023/01/14 05:10:01;;;;;;;;;;;;;;;;;;5016187;28;7043;-68
2023/01/14 05:12:57;;;;;;;;;;;;;;;;;;5016515;28;7345;-68
2023/01/14 05:15:24;;;;;;;;;;;;;;;;;;5016546;28;7382;-68
2023/01/14 05:17:52;;;;;;;;;;;;;;;;;;5016534;28;7367;-68
2023/01/14 05:20:19;;;;;;;;;;;;;;;;;;4996801;28;7144;-68
2023/01/14 05:23:07;;;;;;;;;;;;;;;;;;4996733;28;6996;-68
2023/01/14 05:25:34;;;;;;;;;;;;;;;;;;4996720;28;7136;-68
2023/01/14 05:28:18;;;;;;;;;;;;;;;;;;4996783;28;6907;-68
2023/01/14 05:31:09;;;;;;;;;;;;;;;;;;4996603;28;7123;-68
2023/01/14 05:46:04;;;;;;;;;;;;;;;;;;5016072;28;6803;-65
2023/01/14 05:48:31;;;;;;;;;;;;;;;;;;5015734;28;7197;-65
2023/01/14 05:50:58;;;;;;;;;;;;;;;;;;5015618;28;7483;-65
2023/01/14 05:53:43;;;;;;;;;;;;;;;;;;5015713;28;7356;-65
2023/01/14 05:56:09;;;;;;;;;;;;;;;;;;5016411;28;7435;-65
2023/01/14 06:07:24;;;;;;;;;;;;;;;;;;5016047;28;6833;-65
2023/01/14 06:09:50;;;;;;;;;;;;;;;;;;5015509;28;6927;-65
2023/01/14 06:15:32;;;;;;;;;;;;;;;;;;5015249;28;6684;-65
2023/01/14 06:21:01;;;;;;;;;;;;;;;;;;5015086;28;6762;-65
2023/01/14 06:23:40;;;;;;;;;;;;;;;;;;5015354;28;7112;-64
2023/01/14 06:29:15;;;;;;;;;;;;;;;;;;5015435;28;6934;-65
2023/01/14 06:31:41;;;;;;;;;;;;;;;;;;4997552;28;7049;-65
2023/01/14 06:34:06;;;;;;;;;;;;;;;;;;5015808;28;6972;-65
2023/01/14 06:39:41;;;;;;;;;;;;;;;;;;5026096;28;6965;-65
2023/01/14 06:42:16;;;;;;;;;;;;;;;;;;5034789;28;7075;-65
2023/01/14 06:44:55;;;;;;;;;;;;;;;;;;5034651;28;6932;-65
2023/01/14 06:47:21;;;;;;;;;;;;;;;;;;5034836;28;7362;-65
2023/01/14 06:49:52;;;;;;;;;;;;;;;;;;5034269;28;6951;-65
2023/01/14 06:52:18;;;;;;;;;;;;;;;;;;5034353;28;7172;-65
2023/01/14 06:57:46;;;;;;;;;;;;;;;;;;5015478;28;6986;-65
2023/01/14 07:00:15;;;;;;;;;;;;;;;;;;5014594;28;7137;-65
2023/01/14 07:08:47;;;;;;;;;;;;;;;;;;5025845;28;6953;-65
2023/01/14 07:11:13;;;;;;;;;;;;;;;;;;5034501;28;7203;-65
2023/01/14 07:19:44;;;;;;;;;;;;;;;;;;5022183;28;6744;-65
2023/01/14 07:22:10;;;;;;;;;;;;;;;;;;5033946;28;7132;-65
2023/01/14 07:31:03;;;;;;;;;;;;;;;;;;5033668;28;7428;-65
2023/01/14 07:33:36;;;;;;;;;;;;;;;;;;5031136;28;7093;-65
2023/01/14 07:36:02;;;;;;;;;;;;;;;;;;5031637;28;7228;-65
2023/01/14 07:38:27;;;;;;;;;;;;;;;;;;5033553;28;6927;-65
2023/01/14 07:40:54;;;;;;;;;;;;;;;;;;5034375;28;7161;-65
2023/01/14 07:43:20;;;;;;;;;;;;;;;;;;5034226;28;7105;-65
2023/01/14 07:45:46;;;;;;;;;;;;;;;;;;5034238;28;7202;-65
2023/01/14 07:48:30;;;;;;;;;;;;;;;;;;5034263;28;7179;-65
2023/01/14 07:50:57;;;;;;;;;;;;;;;;;;5033757;28;7060;-67
2023/01/14 07:53:22;;;;;;;;;;;;;;;;;;5033943;28;7075;-67
2023/01/14 07:55:47;;;;;;;;;;;;;;;;;;5034709;28;7010;-67
2023/01/14 07:58:23;;;;;;;;;;;;;;;;;;5037644;28;7108;-67
2023/01/14 08:00:49;;;;;;;;;;;;;;;;;;5037802;28;6953;-67
2023/01/14 08:03:14;;;;;;;;;;;;;;;;;;5037710;28;7292;-67
2023/01/14 08:05:41;;;;;;;;;;;;;;;;;;5037608;28;7218;-67
2023/01/14 08:08:07;;;;;;;;;;;;;;;;;;5037541;28;6878;-67
2023/01/14 08:13:35;;;;;;;;;;;;;;;;;;5037227;28;6839;-67
2023/01/14 08:16:27;;;;;;;;;;;;;;;;;;5037127;28;7413;-67
2023/01/14 08:18:53;;;;;;;;;;;;;;;;;;5037460;28;7036;-67
2023/01/14 08:21:18;;;;;;;;;;;;;;;;;;5037204;28;7096;-67
2023/01/14 08:26:46;;;;;;;;;;;;;;;;;;5037107;28;6948;-67
2023/01/14 08:29:23;;;;;;;;;;;;;;;;;;5037306;28;7123;-67
2023/01/14 08:31:51;;;;;;;;;;;;;;;;;;5037234;28;6929;-67
2023/01/14 08:34:17;;;;;;;;;;;;;;;;;;5037554;28;7495;-67
2023/01/14 08:36:44;;;;;;;;;;;;;;;;;;5038237;28;7145;-67
2023/01/14 08:39:10;;;;;;;;;;;;;;;;;;5037266;28;6942;-68
2023/01/14 08:41:36;;;;;;;;;;;;;;;;;;5036882;28;7162;-69
2023/01/14 08:44:01;;;;;;;;;;;;;;;;;;5036992;28;7240;-68
2023/01/14 08:46:27;;;;;;;;;;;;;;;;;;5036918;28;7039;-68
2023/01/14 08:48:55;;;;;;;;;;;;;;;;;;5036880;28;7051;-68
2023/01/14 08:54:23;;;;;;;;;;;;;;;;;;5036402;28;6684;-68
2023/01/14 08:56:49;;;;;;;;;;;;;;;;;;5034849;28;7062;-68
2023/01/14 09:02:17;;;;;;;;;;;;;;;;;;5036578;28;6939;-68
2023/01/14 09:04:56;;;;;;;;;;;;;;;;;;5028104;28;7524;-68
2023/01/14 09:19:13;;;;;;;;;;;;;;;;;;5036389;28;6700;-69
2023/01/14 09:21:39;;;;;;;;;;;;;;;;;;5036516;28;7421;-69
2023/01/14 09:27:29;;;;;;;;;;;;;;;;;;5035747;28;7224;-69
2023/01/14 09:29:54;;;;;;;;;;;;;;;;;;5035922;28;7165;-69
2023/01/14 09:32:45;;;;;;;;;;;;;;;;;;5035725;28;7139;-69
2023/01/14 09:35:10;;;;;;;;;;;;;;;;;;5036085;28;7275;-69
2023/01/14 09:37:36;;;;;;;;;;;;;;;;;;5035930;28;7137;-69
2023/01/14 09:40:15;;;;;;;;;;;;;;;;;;5035707;28;7277;-69
2023/01/14 09:42:47;;;;;;;;;;;;;;;;;;5035777;28;6975;-69
2023/01/14 09:45:33;;;;;;;;;;;;;;;;;;5035860;28;7403;-69
2023/01/14 09:48:13;;;;;;;;;;;;;;;;;;5035319;28;7145;-69
2023/01/14 09:50:38;;;;;;;;;;;;;;;;;;5035777;28;7152;-69
2023/01/14 09:53:15;;;;;;;;;;;;;;;;;;5017972;28;8418;-69
2023/01/14 09:55:46;;;;;;;;;;;;;;;;;;5035570;28;7072;-69
2023/01/14 09:58:33;;;;;;;;;;;;;;;;;;5035522;28;7204;-69
2023/01/14 10:07:03;;;;;;;;;;;;;;;;;;5035565;28;6673;-70
2023/01/14 10:09:34;;;;;;;;;;;;;;;;;;5035493;28;7226;-69
2023/01/14 10:12:16;;;;;;;;;;;;;;;;;;5032049;28;7005;-70
2023/01/14 10:17:43;;;;;;;;;;;;;;;;;;5035582;28;6900;-70
2023/01/14 10:23:15;;;;;;;;;;;;;;;;;;5034935;28;6690;-70
2023/01/14 10:25:47;;;;;;;;;;;;;;;;;;5034854;28;7104;-70
2023/01/14 10:28:15;;;;;;;;;;;;;;;;;;5035005;28;6963;-70
2023/01/14 10:30:42;;;;;;;;;;;;;;;;;;5035081;28;7350;-70
2023/01/14 10:33:12;;;;;;;;;;;;;;;;;;5034868;28;7038;-70
2023/01/14 10:36:11;;;;;;;;;;;;;;;;;;5035017;28;7214;-69
2023/01/14 10:38:40;;;;;;;;;;;;;;;;;;5035634;28;6966;-69
2023/01/14 10:41:07;;;;;;;;;;;;;;;;;;5034923;28;7160;-69
2023/01/14 10:46:36;;;;;;;;;;;;;;;;;;5034976;28;6938;-70
2023/01/14 10:55:14;;;;;;;;;;;;;;;;;;5034779;28;6895;-70
2023/01/14 11:00:43;;;;;;;;;;;;;;;;;;5034563;28;6687;-70
2023/01/14 11:06:05;;;;;;;;;;;;;;;;;;5034973;28;6985;-70
2023/01/14 11:08:46;;;;;;;;;;;;;;;;;;5034199;28;7207;-70
2023/01/14 11:11:18;;;;;;;;;;;;;;;;;;5034870;28;6938;-70
2023/01/14 11:14:17;;;;;;;;;;;;;;;;;;5034844;28;7888;-70
2023/01/14 11:39:32;;;;;;;;;;;;;;;;;;5057998;28;6803;-70
2023/01/14 11:41:58;;;;;;;;;;;;;;;;;;5058482;28;7041;-70
2023/01/14 11:47:29;;;;;;;;;;;;;;;;;;5058104;28;6680;-70
2023/01/14 11:50:13;;;;;;;;;;;;;;;;;;5057902;28;7187;-69
2023/01/14 11:59:02;;;;;;;;;;;;;;;;;;5057876;28;6699;-69
2023/01/14 12:01:32;;;;;;;;;;;;;;;;;;5057562;28;6972;-69
2023/01/14 12:04:33;;;;;;;;;;;;;;;;;;5057832;28;6960;-69
2023/01/14 12:07:03;;;;;;;;;;;;;;;;;;5057650;28;7202;-69
2023/01/14 12:09:56;;;;;;;;;;;;;;;;;;5057586;28;7083;-69
2023/01/14 12:21:47;;;;;;;;;;;;;;;;;;5037086;28;6779;-69
2023/01/14 12:30:31;;;;;;;;;;;;;;;;;;5037327;28;6982;-70
2023/01/14 12:33:08;;;;;;;;;;;;;;;;;;5037015;28;7676;-70
2023/01/14 12:48:22;;;;;;;;;;;;;;;;;;5036679;28;6937;-70
2023/01/14 12:50:52;;;;;;;;;;;;;;;;;;5036861;28;7158;-70
2023/01/14 12:53:25;;;;;;;;;;;;;;;;;;5036692;28;6874;-70
2023/01/14 12:55:53;;;;;;;;;;;;;;;;;;5036769;28;7024;-70
2023/01/14 12:58:24;;;;;;;;;;;;;;;;;;5036824;28;6935;-70
2023/01/14 13:00:56;;;;;;;;;;;;;;;;;;5036701;28;7080;-70
2023/01/14 13:03:28;;;;;;;;;;;;;;;;;;5036084;28;7246;-70
2023/01/14 13:06:21;;;;;;;;;;;;;;;;;;5036650;28;7137;-70
2023/01/14 13:11:50;;;;;;;;;;;;;;;;;;5037211;28;6951;-70
2023/01/14 13:20:20;;;;;;;;;;;;;;;;;;5036363;28;6965;-70
2023/01/14 13:22:51;;;;;;;;;;;;;;;;;;5036194;28;7362;-70
2023/01/14 13:25:35;;;;;;;;;;;;;;;;;;5036047;28;7209;-70
2023/01/14 13:28:20;;;;;;;;;;;;;;;;;;5036247;28;7183;-70
2023/01/14 13:30:50;;;;;;;;;;;;;;;;;;5025608;28;7241;-70
2023/01/14 13:33:51;;;;;;;;;;;;;;;;;;5035586;28;6996;-70
2023/01/14 13:36:18;;;;;;;;;;;;;;;;;;5036880;28;7607;-70
2023/01/14 13:39:10;;;;;;;;;;;;;;;;;;5035722;28;7205;-70
2023/01/14 13:41:39;;;;;;;;;;;;;;;;;;5033195;28;7224;-70
2023/01/14 13:44:26;;;;;;;;;;;;;;;;;;5034487;28;7200;-70
2023/01/14 13:46:56;;;;;;;;;;;;;;;;;;5035858;28;6972;-70
2023/01/14 13:49:26;;;;;;;;;;;;;;;;;;5035789;28;7234;-70
2023/01/14 13:51:57;;;;;;;;;;;;;;;;;;5035570;28;7437;-70
2023/01/14 13:54:33;;;;;;;;;;;;;;;;;;5035077;28;7148;-70
2023/01/14 13:57:18;;;;;;;;;;;;;;;;;;5035479;28;7292;-70
2023/01/14 14:00:02;;;;;;;;;;;;;;;;;;5035331;28;7005;-70
2023/01/14 14:02:37;;;;;;;;;;;;;;;;;;5035262;28;7360;-70
2023/01/14 14:05:14;;;;;;;;;;;;;;;;;;5054774;28;7100;-70
2023/01/14 14:07:43;;;;;;;;;;;;;;;;;;5055323;28;6969;-70
2023/01/14 14:10:39;;;;;;;;;;;;;;;;;;5054869;28;8512;-70
2023/01/14 14:19:01;;;;;;;;;;;;;;;;;;5054603;28;6704;-70
2023/01/14 14:27:53;;;;;;;;;;;;;;;;;;5054778;28;6942;-70
2023/01/14 14:30:25;;;;;;;;;;;;;;;;;;5054752;28;7197;-70
2023/01/14 14:36:08;;;;;;;;;;;;;;;;;;5055052;28;6684;-70
2023/01/14 14:38:36;;;;;;;;;;;;;;;;;;5054829;28;7162;-70
2023/01/14 14:41:17;;;;;;;;;;;;;;;;;;5054959;28;7184;-70
2023/01/14 14:46:38;;;;;;;;;;;;;;;;;;5055026;28;6794;-70
2023/01/14 14:52:25;;;;;;;;;;;;;;;;;;5050530;28;6686;-70
2023/01/14 14:57:47;;;;;;;;;;;;;;;;;;5015344;28;6939;-70
2023/01/14 15:00:23;;;;;;;;;;;;;;;;;;5014706;28;6935;-70
2023/01/14 15:06:07;;;;;;;;;;;;;;;;;;5015813;28;6708;-71
2023/01/14 15:08:36;;;;;;;;;;;;;;;;;;5019571;28;7364;-70
2023/01/14 15:11:20;;;;;;;;;;;;;;;;;;5019612;28;7601;-70
2023/01/14 15:13:47;;;;;;;;;;;;;;;;;;5018914;28;7078;-71
2023/01/14 15:19:30;;;;;;;;;;;;;;;;;;5024207;28;6801;-71
2023/01/14 15:22:02;;;;;;;;;;;;;;;;;;5018766;28;7191;-71
2023/01/14 15:25:02;;;;;;;;;;;;;;;;;;5018758;28;7162;-71
2023/01/14 15:27:29;;;;;;;;;;;;;;;;;;5019557;28;7127;-70
2023/01/14 15:30:04;;;;;;;;;;;;;;;;;;5018289;28;7984;-70
2023/01/14 15:32:32;;;;;;;;;;;;;;;;;;5018553;28;7434;-70
2023/01/14 15:38:07;;;;;;;;;;;;;;;;;;5018295;28;6688;-70
2023/01/14 15:43:40;;;;;;;;;;;;;;;;;;5018181;28;6686;-70
2023/01/14 15:46:27;;;;;;;;;;;;;;;;;;5018878;28;7061;-70
2023/01/14 15:48:55;;;;;;;;;;;;;;;;;;5018486;28;7035;-70
2023/01/14 15:55:00;;;;;;;;;;;;;;;;;;5018086;28;6921;-70
2023/01/14 15:57:26;;;;;;;;;;;;;;;;;;5018023;28;7377;-70
2023/01/14 16:00:08;;;;;;;;;;;;;;;;;;5018147;28;7393;-70
2023/01/14 16:02:34;;;;;;;;;;;;;;;;;;5018913;28;7166;-70
2023/01/14 16:08:14;;;;;;;;;;;;;;;;;;5038043;28;6961;-70
2023/01/14 16:10:40;;;;;;;;;;;;;;;;;;5037442;28;7094;-70
2023/01/14 16:13:13;;;;;;;;;;;;;;;;;;5037338;28;7160;-70
2023/01/14 16:15:39;;;;;;;;;;;;;;;;;;5037464;28;7194;-70
2023/01/14 16:18:18;;;;;;;;;;;;;;;;;;5037003;28;7028;-70
2023/01/14 16:23:47;;;;;;;;;;;;;;;;;;5057260;28;6758;-70
2023/01/14 16:26:15;;;;;;;;;;;;;;;;;;5057915;28;7148;-70
2023/01/14 16:28:41;;;;;;;;;;;;;;;;;;5057201;28;6945;-70
2023/01/14 16:31:11;;;;;;;;;;;;;;;;;;5057233;28;6833;-70
2023/01/14 16:37:07;;;;;;;;;;;;;;;;;;5056898;28;6689;-70
2023/01/14 16:39:34;;;;;;;;;;;;;;;;;;5057086;28;6932;-71
2023/01/14 16:45:22;;;;;;;;;;;;;;;;;;5056812;28;7006;-70
2023/01/14 16:47:48;;;;;;;;;;;;;;;;;;5056824;28;7246;-70
2023/01/14 16:50:35;;;;;;;;;;;;;;;;;;5055440;28;7225;-70
2023/01/14 16:53:01;;;;;;;;;;;;;;;;;;5055792;28;8171;-73
2023/01/14 16:55:28;;;;;;;;;;;;;;;;;;5056774;28;7187;-72
2023/01/14 16:57:55;;;;;;;;;;;;;;;;;;5056241;28;6916;-72
2023/01/14 17:00:29;;;;;;;;;;;;;;;;;;5056494;28;7388;-72
2023/01/14 17:02:55;;;;;;;;;;;;;;;;;;5055100;28;7408;-72
2023/01/14 17:05:20;;;;;;;;;;;;;;;;;;5056066;28;6838;-72
2023/01/14 17:10:49;;;;;;;;;;;;;;;;;;5056312;28;6683;-72
2023/01/14 17:13:15;;;;;;;;;;;;;;;;;;5055947;28;7223;-72
2023/01/14 17:15:41;;;;;;;;;;;;;;;;;;5056433;28;7295;-72
2023/01/14 17:18:06;;;;;;;;;;;;;;;;;;5056343;28;7141;-72
2023/01/14 17:20:32;;;;;;;;;;;;;;;;;;5054844;28;7799;-72
2023/01/14 17:23:14;;;;;;;;;;;;;;;;;;5055993;28;7054;-72
2023/01/14 17:25:39;;;;;;;;;;;;;;;;;;5055757;28;7797;-72
2023/01/14 17:28:05;;;;;;;;;;;;;;;;;;5056381;28;7271;-72
2023/01/14 17:30:48;;;;;;;;;;;;;;;;;;5056131;28;7417;-72
2023/01/14 17:33:13;;;;;;;;;;;;;;;;;;5055646;28;7197;-72
2023/01/14 17:35:39;;;;;;;;;;;;;;;;;;5056853;28;7216;-72
2023/01/14 17:44:27;;;;;;;;;;;;;;;;;;5055949;28;6737;-72
2023/01/14 17:46:53;;;;;;;;;;;;;;;;;;5055762;28;7166;-72
2023/01/14 17:49:20;;;;;;;;;;;;;;;;;;5055762;28;7084;-72
2023/01/14 17:51:45;;;;;;;;;;;;;;;;;;5055639;28;7157;-72
2023/01/14 17:54:13;;;;;;;;;;;;;;;;;;5071670;28;7189;-72
2023/01/14 17:56:38;;;;;;;;;;;;;;;;;;5055454;28;7442;-72
2023/01/14 18:02:09;;;;;;;;;;;;;;;;;;5055192;28;6683;-72
2023/01/14 18:04:42;;;;;;;;;;;;;;;;;;5055320;28;7134;-72
2023/01/14 18:07:09;;;;;;;;;;;;;;;;;;5055296;28;7175;-72
2023/01/14 18:09:35;;;;;;;;;;;;;;;;;;5055486;28;7085;-73
2023/01/14 18:12:01;;;;;;;;;;;;;;;;;;5054995;28;6959;-72
2023/01/14 18:14:31;;;;;;;;;;;;;;;;;;5055151;28;7204;-72
2023/01/14 18:16:57;;;;;;;;;;;;;;;;;;5054892;28;8286;-72
2023/01/14 18:22:25;;;;;;;;;;;;;;;;;;5050345;28;7098;-72
2023/01/14 18:25:22;;;;;;;;;;;;;;;;;;5035564;28;7262;-72
2023/01/14 18:27:48;;;;;;;;;;;;;;;;;;5035158;28;7192;-72
2023/01/14 18:30:17;;;;;;;;;;;;;;;;;;5035440;28;7145;-72
2023/01/14 18:32:43;;;;;;;;;;;;;;;;;;5034833;28;7629;-72
2023/01/14 18:35:33;;;;;;;;;;;;;;;;;;5034652;28;6952;-72
2023/01/14 18:38:04;;;;;;;;;;;;;;;;;;5035076;28;7077;-72
2023/01/14 18:40:34;;;;;;;;;;;;;;;;;;5035359;28;7425;-72
2023/01/14 18:42:59;;;;;;;;;;;;;;;;;;5034887;28;7420;-72
2023/01/14 18:48:27;;;;;;;;;;;;;;;;;;5034786;28;6932;-72
2023/01/14 18:54:16;;;;;;;;;;;;;;;;;;5034578;28;6742;-72
2023/01/14 18:56:41;;;;;;;;;;;;;;;;;;5034873;28;7147;-72
2023/01/14 18:59:09;;;;;;;;;;;;;;;;;;5034705;28;7331;-72
2023/01/14 19:01:35;;;;;;;;;;;;;;;;;;5034723;28;6954;-72
2023/01/14 19:04:22;;;;;;;;;;;;;;;;;;5034801;28;7253;-72
2023/01/14 19:06:47;;;;;;;;;;;;;;;;;;5054706;28;7395;-72
2023/01/14 19:09:13;;;;;;;;;;;;;;;;;;5054570;28;7151;-72
2023/01/14 19:14:56;;;;;;;;;;;;;;;;;;5054179;28;7034;-72
2023/01/14 19:17:22;;;;;;;;;;;;;;;;;;5054467;28;7372;-72
2023/01/14 19:19:48;;;;;;;;;;;;;;;;;;5054471;28;7021;-72
2023/01/14 19:25:24;;;;;;;;;;;;;;;;;;5054192;28;7005;-73
2023/01/14 19:27:49;;;;;;;;;;;;;;;;;;5054800;28;7154;-72
2023/01/14 19:30:24;;;;;;;;;;;;;;;;;;5054200;28;7046;-72
2023/01/14 19:35:52;;;;;;;;;;;;;;;;;;5054068;28;6747;-72
2023/01/14 19:41:46;;;;;;;;;;;;;;;;;;5053916;28;6698;-73
2023/01/14 19:44:13;;;;;;;;;;;;;;;;;;5054190;28;7188;-73
2023/01/14 19:46:39;;;;;;;;;;;;;;;;;;5054225;28;7088;-73
2023/01/14 19:49:04;;;;;;;;;;;;;;;;;;5054781;28;6978;-73
2023/01/14 19:54:33;;;;;;;;;;;;;;;;;;5057749;28;6884;-73
2023/01/14 19:56:58;;;;;;;;;;;;;;;;;;5057668;28;7184;-73
2023/01/14 19:59:27;;;;;;;;;;;;;;;;;;5057774;28;7119;-73
2023/01/14 20:01:52;;;;;;;;;;;;;;;;;;5057774;28;6814;-72
2023/01/14 20:04:18;;;;;;;;;;;;;;;;;;5057310;28;7205;-72
2023/01/14 20:06:43;;;;;;;;;;;;;;;;;;5057742;28;7308;-72
2023/01/14 20:09:13;;;;;;;;;;;;;;;;;;5058412;28;6933;-72
2023/01/14 20:14:42;;;;;;;;;;;;;;;;;;5057231;28;7410;-72
2023/01/14 20:20:10;;;;;;;;;;;;;;;;;;5057625;28;6924;-72
2023/01/14 20:22:36;;;;;;;;;;;;;;;;;;5057055;28;7286;-72
2023/01/14 20:25:20;;;;;;;;;;;;;;;;;;5057429;28;7176;-72
2023/01/14 20:27:46;;;;;;;;;;;;;;;;;;5057282;28;7405;-72
2023/01/14 20:30:25;;;;;;;;;;;;;;;;;;5057043;28;7181;-72
2023/01/14 20:32:51;;;;;;;;;;;;;;;;;;5057259;28;7387;-72
2023/01/14 20:35:16;;;;;;;;;;;;;;;;;;5058301;28;6916;-72
2023/01/14 20:37:42;;;;;;;;;;;;;;;;;;5057993;28;6959;-72
2023/01/14 20:40:08;;;;;;;;;;;;;;;;;;5057066;28;7552;-72
2023/01/14 20:42:34;;;;;;;;;;;;;;;;;;5057129;28;7137;-72
2023/01/14 20:45:01;;;;;;;;;;;;;;;;;;5056640;28;7034;-72
2023/01/14 20:50:37;;;;;;;;;;;;;;;;;;5056630;28;6700;-73
2023/01/14 20:53:03;;;;;;;;;;;;;;;;;;5056625;28;7124;-72
2023/01/14 20:55:28;;;;;;;;;;;;;;;;;;5056771;28;7429;-72
2023/01/14 20:57:54;;;;;;;;;;;;;;;;;;5056814;28;7344;-72
2023/01/14 21:03:47;;;;;;;;;;;;;;;;;;5056352;28;6706;-71
2023/01/14 21:06:15;;;;;;;;;;;;;;;;;;5046154;28;6968;-72
2023/01/14 21:08:47;;;;;;;;;;;;;;;;;;5049650;28;7408;-72
2023/01/14 21:11:17;;;;;;;;;;;;;;;;;;5054063;28;7441;-72
2023/01/14 21:22:58;;;;;;;;;;;;;;;;;;5044071;28;6797;-72
2023/01/14 21:25:29;;;;;;;;;;;;;;;;;;5036294;28;7384;-72
2023/01/14 21:28:10;;;;;;;;;;;;;;;;;;5036767;28;7122;-72
2023/01/14 21:30:38;;;;;;;;;;;;;;;;;;5035887;28;7166;-71
2023/01/14 21:36:25;;;;;;;;;;;;;;;;;;5035979;28;6974;-71
2023/01/14 21:39:10;;;;;;;;;;;;;;;;;;5036338;28;7398;-71
2023/01/14 21:44:19;;;;;;;;;;;;;;;;;;5055137;28;7072;-71
2023/01/14 21:46:44;;;;;;;;;;;;;;;;;;5055455;28;7128;-71
2023/01/14 21:49:48;;;;;;;;;;;;;;;;;;5049593;28;7161;-71
2023/01/14 21:52:14;;;;;;;;;;;;;;;;;;5050264;28;7421;-71
2023/01/14 21:54:40;;;;;;;;;;;;;;;;;;5041413;28;7179;-71
2023/01/14 21:57:05;;;;;;;;;;;;;;;;;;5035532;28;7015;-71
2023/01/14 21:59:31;;;;;;;;;;;;;;;;;;5035635;28;7040;-71
2023/01/14 22:01:56;;;;;;;;;;;;;;;;;;5035767;28;7059;-71
2023/01/14 22:04:24;;;;;;;;;;;;;;;;;;5035592;28;7424;-71
2023/01/14 22:06:50;;;;;;;;;;;;;;;;;;5035426;28;7068;-71
2023/01/14 22:09:16;;;;;;;;;;;;;;;;;;5035439;28;7139;-71
2023/01/14 22:11:41;;;;;;;;;;;;;;;;;;5035850;28;7105;-71
2023/01/14 22:14:34;;;;;;;;;;;;;;;;;;5054458;28;7192;-71
2023/01/14 22:17:00;;;;;;;;;;;;;;;;;;5054947;28;7188;-72
2023/01/14 22:22:30;;;;;;;;;;;;;;;;;;5043394;28;7056;-71
2023/01/14 22:25:25;;;;;;;;;;;;;;;;;;5039368;28;7325;-71
2023/01/14 22:27:50;;;;;;;;;;;;;;;;;;5054937;28;7267;-71
2023/01/14 22:30:37;;;;;;;;;;;;;;;;;;5055062;28;7328;-71
2023/01/14 22:33:03;;;;;;;;;;;;;;;;;;5054536;28;6998;-71
2023/01/14 22:35:28;;;;;;;;;;;;;;;;;;5055082;28;6935;-71
2023/01/14 22:38:09;;;;;;;;;;;;;;;;;;5055269;28;7186;-71
2023/01/14 22:40:36;;;;;;;;;;;;;;;;;;5054969;28;7245;-71
2023/01/14 22:43:03;;;;;;;;;;;;;;;;;;5043408;28;7219;-71
2023/01/14 22:45:28;;;;;;;;;;;;;;;;;;5042520;28;6939;-71
2023/01/14 22:48:00;;;;;;;;;;;;;;;;;;5034859;28;7341;-71
2023/01/14 22:50:25;;;;;;;;;;;;;;;;;;5034696;28;7116;-71
2023/01/14 22:52:51;;;;;;;;;;;;;;;;;;5034889;28;6972;-71
2023/01/14 22:58:31;;;;;;;;;;;;;;;;;;5034517;28;6973;-71
2023/01/14 23:00:57;;;;;;;;;;;;;;;;;;5034824;28;7344;-71
2023/01/14 23:03:24;;;;;;;;;;;;;;;;;;5034862;28;7395;-71
2023/01/14 23:06:16;;;;;;;;;;;;;;;;;;5034392;28;7951;-71
2023/01/14 23:08:42;;;;;;;;;;;;;;;;;;5034456;28;7543;-71
2023/01/14 23:11:18;;;;;;;;;;;;;;;;;;5034669;28;7549;-71
2023/01/14 23:13:46;;;;;;;;;;;;;;;;;;5035356;28;7036;-71
2023/01/14 23:25:09;;;;;;;;;;;;;;;;;;5034819;28;6979;-71
2023/01/14 23:30:54;;;;;;;;;;;;;;;;;;5038227;28;7012;-71
2023/01/14 23:33:20;;;;;;;;;;;;;;;;;;5038253;28;7182;-71
2023/01/14 23:35:45;;;;;;;;;;;;;;;;;;5038379;28;7198;-71
2023/01/14 23:38:27;;;;;;;;;;;;;;;;;;5038321;28;7006;-71
2023/01/14 23:40:53;;;;;;;;;;;;;;;;;;5037884;28;7546;-71
2023/01/14 23:43:18;;;;;;;;;;;;;;;;;;5038121;28;6960;-71
2023/01/14 23:46:19;;;;;;;;;;;;;;;;;;5038184;28;7166;-71
2023/01/14 23:48:46;;;;;;;;;;;;;;;;;;5038180;28;7150;-71
2023/01/14 23:51:15;;;;;;;;;;;;;;;;;;5037991;28;7401;-71
2023/01/14 23:53:40;;;;;;;;;;;;;;;;;;5037929;28;7209;-71
2023/01/14 23:59:15;;;;;;;;;;;;;;;;;;5037792;28;7005;-71
